sensor_id;sensor_type;location;lat;lon;timestamp;temperature;humidity
5394;DHT22;2720;52.396;10.064;2022-11-20T00:01:10;-2.80;99.90
5394;DHT22;2720;52.396;10.064;2022-11-20T00:03:37;-3.10;99.90
5394;DHT22;2720;52.396;10.064;2022-11-20T00:06:06;-2.90;99.90
5394;DHT22;2720;52.396;10.064;2022-11-20T00:08:33;-2.90;99.90
5394;DHT22;2720;52.396;10.064;2022-11-20T00:11:04;-3.20;99.90
5394;DHT22;2720;52.396;10.064;2022-11-20T00:13:32;-3.30;99.90
5394;DHT22;2720;52.396;10.064;2022-11-20T00:15:59;-3.10;99.90
5394;DHT22;2720;52.396;10.064;2022-11-20T00:18:27;-3.00;99.90
5394;DHT22;2720;52.396;10.064;2022-11-20T00:20:59;-3.10;99.90
5394;DHT22;2720;52.396;10.064;2022-11-20T00:23:27;-3.00;99.90
5394;DHT22;2720;52.396;10.064;2022-11-20T00:25:54;-2.90;99.90
5394;DHT22;2720;52.396;10.064;2022-11-20T00:28:22;-2.90;99.90
5394;DHT22;2720;52.396;10.064;2022-11-20T00:30:49;-3.20;99.90
5394;DHT22;2720;52.396;10.064;2022-11-20T00:33:16;-3.00;99.90
5394;DHT22;2720;52.396;10.064;2022-11-20T00:35:43;-2.70;99.90
5394;DHT22;2720;52.396;10.064;2022-11-20T00:38:10;-2.40;99.90
5394;DHT22;2720;52.396;10.064;2022-11-20T00:40:37;-2.80;99.90
5394;DHT22;2720;52.396;10.064;2022-11-20T00:43:04;-3.00;99.90
5394;DHT22;2720;52.396;10.064;2022-11-20T00:45:32;-2.70;99.90
5394;DHT22;2720;52.396;10.064;2022-11-20T00:47:59;-2.80;99.90
5394;DHT22;2720;52.396;10.064;2022-11-20T00:50:26;-2.70;99.90
5394;DHT22;2720;52.396;10.064;2022-11-20T00:52:53;-3.00;99.90
5394;DHT22;2720;52.396;10.064;2022-11-20T00:55:20;-2.80;99.90
5394;DHT22;2720;52.396;10.064;2022-11-20T00:57:47;-2.50;99.90
5394;DHT22;2720;52.396;10.064;2022-11-20T01:00:14;-2.50;99.90
5394;DHT22;2720;52.396;10.064;2022-11-20T01:02:43;-2.80;99.90
5394;DHT22;2720;52.396;10.064;2022-11-20T01:05:09;-2.40;99.90
5394;DHT22;2720;52.396;10.064;2022-11-20T01:07:36;-2.60;99.90
5394;DHT22;2720;52.396;10.064;2022-11-20T01:10:04;-2.30;99.90
5394;DHT22;2720;52.396;10.064;2022-11-20T01:12:31;-3.00;99.90
5394;DHT22;2720;52.396;10.064;2022-11-20T01:14:58;-2.70;99.90
5394;DHT22;2720;52.396;10.064;2022-11-20T01:17:25;-2.60;99.90
5394;DHT22;2720;52.396;10.064;2022-11-20T01:19:53;-2.60;99.90
5394;DHT22;2720;52.396;10.064;2022-11-20T01:22:20;-3.40;99.90
5394;DHT22;2720;52.396;10.064;2022-11-20T01:24:47;-3.10;99.90
5394;DHT22;2720;52.396;10.064;2022-11-20T01:27:14;-2.70;99.90
5394;DHT22;2720;52.396;10.064;2022-11-20T01:29:41;-2.70;99.90
5394;DHT22;2720;52.396;10.064;2022-11-20T01:32:08;-2.70;99.90
5394;DHT22;2720;52.396;10.064;2022-11-20T01:34:35;-2.90;99.90
5394;DHT22;2720;52.396;10.064;2022-11-20T01:37:04;-2.60;99.90
5394;DHT22;2720;52.396;10.064;2022-11-20T01:39:30;-2.80;99.90
5394;DHT22;2720;52.396;10.064;2022-11-20T01:41:57;-2.40;99.90
5394;DHT22;2720;52.396;10.064;2022-11-20T01:44:55;-2.60;99.90
5394;DHT22;2720;52.396;10.064;2022-11-20T01:47:33;-2.40;99.90
5394;DHT22;2720;52.396;10.064;2022-11-20T01:50:05;-2.40;99.90
5394;DHT22;2720;52.396;10.064;2022-11-20T01:52:37;-2.60;99.90
5394;DHT22;2720;52.396;10.064;2022-11-20T01:55:09;-3.10;99.90
5394;DHT22;2720;52.396;10.064;2022-11-20T01:57:38;-3.40;99.90
5394;DHT22;2720;52.396;10.064;2022-11-20T02:00:10;-1.70;99.90
5394;DHT22;2720;52.396;10.064;2022-11-20T02:02:39;-3.20;99.90
5394;DHT22;2720;52.396;10.064;2022-11-20T02:05:14;-2.50;99.90
5394;DHT22;2720;52.396;10.064;2022-11-20T02:07:46;-2.70;99.90
5394;DHT22;2720;52.396;10.064;2022-11-20T02:10:13;-2.40;99.90
5394;DHT22;2720;52.396;10.064;2022-11-20T02:12:41;-2.70;99.90
5394;DHT22;2720;52.396;10.064;2022-11-20T02:15:25;-2.50;99.90
5394;DHT22;2720;52.396;10.064;2022-11-20T02:17:52;-2.70;99.90
5394;DHT22;2720;52.396;10.064;2022-11-20T02:20:19;-2.50;99.90
5394;DHT22;2720;52.396;10.064;2022-11-20T02:22:53;-2.60;99.90
5394;DHT22;2720;52.396;10.064;2022-11-20T02:25:24;-2.60;99.90
5394;DHT22;2720;52.396;10.064;2022-11-20T02:27:52;-2.00;99.90
5394;DHT22;2720;52.396;10.064;2022-11-20T02:30:19;-2.50;99.90
5394;DHT22;2720;52.396;10.064;2022-11-20T02:32:46;-2.90;99.90
5394;DHT22;2720;52.396;10.064;2022-11-20T02:35:41;-2.30;99.90
5394;DHT22;2720;52.396;10.064;2022-11-20T02:38:08;-3.10;99.90
5394;DHT22;2720;52.396;10.064;2022-11-20T02:40:37;-1.90;99.90
5394;DHT22;2720;52.396;10.064;2022-11-20T02:43:04;-2.10;99.90
5394;DHT22;2720;52.396;10.064;2022-11-20T02:45:31;-2.20;99.90
5394;DHT22;2720;52.396;10.064;2022-11-20T02:47:58;-2.20;99.90
5394;DHT22;2720;52.396;10.064;2022-11-20T02:50:25;-2.10;99.90
5394;DHT22;2720;52.396;10.064;2022-11-20T02:52:52;-1.70;99.90
5394;DHT22;2720;52.396;10.064;2022-11-20T02:55:19;-2.20;99.90
5394;DHT22;2720;52.396;10.064;2022-11-20T02:57:47;-1.70;99.90
5394;DHT22;2720;52.396;10.064;2022-11-20T03:00:14;-1.90;99.90
5394;DHT22;2720;52.396;10.064;2022-11-20T03:02:41;-2.30;99.90
5394;DHT22;2720;52.396;10.064;2022-11-20T03:05:08;-2.30;99.90
5394;DHT22;2720;52.396;10.064;2022-11-20T03:07:35;-2.20;99.90
5394;DHT22;2720;52.396;10.064;2022-11-20T03:10:03;-2.40;99.90
5394;DHT22;2720;52.396;10.064;2022-11-20T03:12:30;-2.50;99.90
5394;DHT22;2720;52.396;10.064;2022-11-20T03:14:59;-2.40;99.90
5394;DHT22;2720;52.396;10.064;2022-11-20T03:17:26;-2.30;99.90
5394;DHT22;2720;52.396;10.064;2022-11-20T03:19:53;-2.40;99.90
5394;DHT22;2720;52.396;10.064;2022-11-20T03:22:20;-1.40;99.90
5394;DHT22;2720;52.396;10.064;2022-11-20T03:24:47;-2.10;99.90
5394;DHT22;2720;52.396;10.064;2022-11-20T03:27:14;-2.40;99.90
5394;DHT22;2720;52.396;10.064;2022-11-20T03:29:41;-1.70;99.90
5394;DHT22;2720;52.396;10.064;2022-11-20T03:32:09;-2.30;99.90
5394;DHT22;2720;52.396;10.064;2022-11-20T03:34:36;-2.80;99.90
5394;DHT22;2720;52.396;10.064;2022-11-20T03:37:03;-2.40;99.90
5394;DHT22;2720;52.396;10.064;2022-11-20T03:39:30;-2.30;99.90
5394;DHT22;2720;52.396;10.064;2022-11-20T03:41:57;-2.30;99.90
5394;DHT22;2720;52.396;10.064;2022-11-20T03:44:24;-2.30;99.90
5394;DHT22;2720;52.396;10.064;2022-11-20T03:46:51;-2.20;99.90
5394;DHT22;2720;52.396;10.064;2022-11-20T03:49:19;-2.30;99.90
5394;DHT22;2720;52.396;10.064;2022-11-20T03:51:46;-1.90;99.90
5394;DHT22;2720;52.396;10.064;2022-11-20T03:54:13;-2.70;99.90
5394;DHT22;2720;52.396;10.064;2022-11-20T03:56:40;-2.20;99.90
5394;DHT22;2720;52.396;10.064;2022-11-20T03:59:10;-2.10;99.90
5394;DHT22;2720;52.396;10.064;2022-11-20T04:01:37;-2.10;99.90
5394;DHT22;2720;52.396;10.064;2022-11-20T04:04:04;-2.10;99.90
5394;DHT22;2720;52.396;10.064;2022-11-20T04:06:35;-2.60;99.90
5394;DHT22;2720;52.396;10.064;2022-11-20T04:09:02;-2.10;99.90
5394;DHT22;2720;52.396;10.064;2022-11-20T04:11:31;-1.80;99.90
5394;DHT22;2720;52.396;10.064;2022-11-20T04:14:00;-2.20;99.90
5394;DHT22;2720;52.396;10.064;2022-11-20T04:16:30;-1.70;99.90
5394;DHT22;2720;52.396;10.064;2022-11-20T04:18:59;-2.00;99.90
5394;DHT22;2720;52.396;10.064;2022-11-20T04:21:27;-1.90;99.90
5394;DHT22;2720;52.396;10.064;2022-11-20T04:23:55;-2.50;99.90
5394;DHT22;2720;52.396;10.064;2022-11-20T04:26:24;-2.80;99.90
5394;DHT22;2720;52.396;10.064;2022-11-20T04:28:51;-2.00;99.90
5394;DHT22;2720;52.396;10.064;2022-11-20T04:31:20;-2.40;99.90
5394;DHT22;2720;52.396;10.064;2022-11-20T04:33:48;-1.80;99.90
5394;DHT22;2720;52.396;10.064;2022-11-20T04:36:16;-1.90;99.90
5394;DHT22;2720;52.396;10.064;2022-11-20T04:38:43;-1.70;99.90
5394;DHT22;2720;52.396;10.064;2022-11-20T04:41:15;-1.80;99.90
5394;DHT22;2720;52.396;10.064;2022-11-20T04:43:46;-2.00;99.90
5394;DHT22;2720;52.396;10.064;2022-11-20T04:46:14;-2.60;99.90
5394;DHT22;2720;52.396;10.064;2022-11-20T04:48:41;-1.90;99.90
5394;DHT22;2720;52.396;10.064;2022-11-20T04:53:35;-1.60;99.90
5394;DHT22;2720;52.396;10.064;2022-11-20T04:56:04;-2.50;99.90
5394;DHT22;2720;52.396;10.064;2022-11-20T04:58:33;-1.80;99.90
5394;DHT22;2720;52.396;10.064;2022-11-20T05:01:01;-1.70;99.90
5394;DHT22;2720;52.396;10.064;2022-11-20T05:03:29;-2.30;99.90
5394;DHT22;2720;52.396;10.064;2022-11-20T05:05:56;-1.50;99.90
5394;DHT22;2720;52.396;10.064;2022-11-20T05:08:23;-2.00;99.90
5394;DHT22;2720;52.396;10.064;2022-11-20T05:10:50;-1.60;99.90
5394;DHT22;2720;52.396;10.064;2022-11-20T05:13:17;-1.50;99.90
5394;DHT22;2720;52.396;10.064;2022-11-20T05:15:45;-1.50;99.90
5394;DHT22;2720;52.396;10.064;2022-11-20T05:18:12;-1.90;99.90
5394;DHT22;2720;52.396;10.064;2022-11-20T05:20:39;-1.30;99.90
5394;DHT22;2720;52.396;10.064;2022-11-20T05:23:06;-2.10;99.90
5394;DHT22;2720;52.396;10.064;2022-11-20T05:25:33;-1.90;99.90
5394;DHT22;2720;52.396;10.064;2022-11-20T05:28:00;-2.20;99.90
5394;DHT22;2720;52.396;10.064;2022-11-20T05:30:27;-1.40;99.90
5394;DHT22;2720;52.396;10.064;2022-11-20T05:32:55;-1.30;99.90
5394;DHT22;2720;52.396;10.064;2022-11-20T05:35:22;-1.50;99.90
5394;DHT22;2720;52.396;10.064;2022-11-20T05:37:49;-1.50;99.90
5394;DHT22;2720;52.396;10.064;2022-11-20T05:40:16;-1.40;99.90
5394;DHT22;2720;52.396;10.064;2022-11-20T05:42:43;-1.70;99.90
5394;DHT22;2720;52.396;10.064;2022-11-20T05:45:10;-1.20;99.90
5394;DHT22;2720;52.396;10.064;2022-11-20T05:47:37;-1.20;99.90
5394;DHT22;2720;52.396;10.064;2022-11-20T05:50:06;-1.40;99.90
5394;DHT22;2720;52.396;10.064;2022-11-20T05:52:33;-1.40;99.90
5394;DHT22;2720;52.396;10.064;2022-11-20T05:55:00;-1.00;99.90
5394;DHT22;2720;52.396;10.064;2022-11-20T05:57:27;-2.10;99.90
5394;DHT22;2720;52.396;10.064;2022-11-20T05:59:54;-1.60;99.90
5394;DHT22;2720;52.396;10.064;2022-11-20T06:02:21;-1.70;99.90
5394;DHT22;2720;52.396;10.064;2022-11-20T06:04:48;-1.30;99.90
5394;DHT22;2720;52.396;10.064;2022-11-20T06:07:16;-1.40;99.90
5394;DHT22;2720;52.396;10.064;2022-11-20T06:09:43;-1.20;99.90
5394;DHT22;2720;52.396;10.064;2022-11-20T06:12:10;-1.30;99.90
5394;DHT22;2720;52.396;10.064;2022-11-20T06:14:37;-2.10;99.90
5394;DHT22;2720;52.396;10.064;2022-11-20T06:17:04;-2.10;99.90
5394;DHT22;2720;52.396;10.064;2022-11-20T06:19:31;-1.20;99.90
5394;DHT22;2720;52.396;10.064;2022-11-20T06:21:58;-1.90;99.90
5394;DHT22;2720;52.396;10.064;2022-11-20T06:24:26;-1.80;99.90
5394;DHT22;2720;52.396;10.064;2022-11-20T06:26:53;-2.10;99.90
5394;DHT22;2720;52.396;10.064;2022-11-20T06:29:20;-2.10;99.90
5394;DHT22;2720;52.396;10.064;2022-11-20T06:31:47;-1.20;99.90
5394;DHT22;2720;52.396;10.064;2022-11-20T06:34:14;-2.10;99.90
5394;DHT22;2720;52.396;10.064;2022-11-20T06:36:41;-1.30;99.90
5394;DHT22;2720;52.396;10.064;2022-11-20T06:39:08;-1.60;99.90
5394;DHT22;2720;52.396;10.064;2022-11-20T06:41:37;-2.20;99.90
5394;DHT22;2720;52.396;10.064;2022-11-20T06:44:04;-2.00;99.90
5394;DHT22;2720;52.396;10.064;2022-11-20T06:46:31;-2.10;99.90
5394;DHT22;2720;52.396;10.064;2022-11-20T06:48:58;-1.90;99.90
5394;DHT22;2720;52.396;10.064;2022-11-20T06:51:25;-2.10;99.90
5394;DHT22;2720;52.396;10.064;2022-11-20T06:53:53;-1.90;99.90
5394;DHT22;2720;52.396;10.064;2022-11-20T06:56:20;-2.00;99.90
5394;DHT22;2720;52.396;10.064;2022-11-20T06:58:48;-1.20;99.90
5394;DHT22;2720;52.396;10.064;2022-11-20T07:01:15;-1.90;99.90
5394;DHT22;2720;52.396;10.064;2022-11-20T07:03:43;-1.90;99.90
5394;DHT22;2720;52.396;10.064;2022-11-20T07:06:10;-1.50;99.90
5394;DHT22;2720;52.396;10.064;2022-11-20T07:08:37;-2.10;99.90
5394;DHT22;2720;52.396;10.064;2022-11-20T07:11:05;-1.10;99.90
5394;DHT22;2720;52.396;10.064;2022-11-20T07:13:33;-1.70;99.90
5394;DHT22;2720;52.396;10.064;2022-11-20T07:16:03;-1.70;99.90
5394;DHT22;2720;52.396;10.064;2022-11-20T07:18:30;-1.20;99.90
5394;DHT22;2720;52.396;10.064;2022-11-20T07:21:00;-1.80;99.90
5394;DHT22;2720;52.396;10.064;2022-11-20T07:23:27;-2.10;99.90
5394;DHT22;2720;52.396;10.064;2022-11-20T07:25:54;-1.70;99.90
5394;DHT22;2720;52.396;10.064;2022-11-20T07:28:21;-2.10;99.90
5394;DHT22;2720;52.396;10.064;2022-11-20T07:30:51;-2.20;99.90
5394;DHT22;2720;52.396;10.064;2022-11-20T07:33:20;-2.20;99.90
5394;DHT22;2720;52.396;10.064;2022-11-20T07:35:47;-1.30;99.90
5394;DHT22;2720;52.396;10.064;2022-11-20T07:38:14;-1.70;99.90
5394;DHT22;2720;52.396;10.064;2022-11-20T07:40:41;-1.00;99.90
5394;DHT22;2720;52.396;10.064;2022-11-20T07:43:08;-1.80;99.90
5394;DHT22;2720;52.396;10.064;2022-11-20T07:45:35;-1.10;99.90
5394;DHT22;2720;52.396;10.064;2022-11-20T07:48:02;-0.90;99.90
5394;DHT22;2720;52.396;10.064;2022-11-20T07:50:30;-1.50;99.90
5394;DHT22;2720;52.396;10.064;2022-11-20T07:53:01;-1.50;99.90
5394;DHT22;2720;52.396;10.064;2022-11-20T07:55:29;-1.50;99.90
5394;DHT22;2720;52.396;10.064;2022-11-20T07:57:56;-1.20;99.90
5394;DHT22;2720;52.396;10.064;2022-11-20T08:00:24;-1.20;99.90
5394;DHT22;2720;52.396;10.064;2022-11-20T08:02:51;-0.90;99.90
5394;DHT22;2720;52.396;10.064;2022-11-20T08:05:18;-0.80;99.90
5394;DHT22;2720;52.396;10.064;2022-11-20T08:07:47;-0.70;99.90
5394;DHT22;2720;52.396;10.064;2022-11-20T08:10:15;-0.70;99.90
5394;DHT22;2720;52.396;10.064;2022-11-20T08:12:46;0.10;99.90
5394;DHT22;2720;52.396;10.064;2022-11-20T08:15:30;0.00;99.90
5394;DHT22;2720;52.396;10.064;2022-11-20T08:18:04;-0.70;99.90
5394;DHT22;2720;52.396;10.064;2022-11-20T08:20:33;-1.10;99.90
5394;DHT22;2720;52.396;10.064;2022-11-20T08:23:03;-1.40;99.90
5394;DHT22;2720;52.396;10.064;2022-11-20T08:25:32;-0.80;99.90
5394;DHT22;2720;52.396;10.064;2022-11-20T08:27:59;-0.70;99.90
5394;DHT22;2720;52.396;10.064;2022-11-20T08:30:26;-0.60;99.90
5394;DHT22;2720;52.396;10.064;2022-11-20T08:32:54;0.10;99.90
5394;DHT22;2720;52.396;10.064;2022-11-20T08:35:21;-1.10;99.90
5394;DHT22;2720;52.396;10.064;2022-11-20T08:37:48;-0.70;99.90
5394;DHT22;2720;52.396;10.064;2022-11-20T08:40:17;-0.50;99.90
5394;DHT22;2720;52.396;10.064;2022-11-20T08:42:47;0.10;99.90
5394;DHT22;2720;52.396;10.064;2022-11-20T08:45:15;-0.70;99.90
5394;DHT22;2720;52.396;10.064;2022-11-20T08:47:42;-0.70;99.90
5394;DHT22;2720;52.396;10.064;2022-11-20T08:50:10;-1.00;99.90
5394;DHT22;2720;52.396;10.064;2022-11-20T08:52:37;-0.20;99.90
5394;DHT22;2720;52.396;10.064;2022-11-20T08:55:06;-0.80;99.90
5394;DHT22;2720;52.396;10.064;2022-11-20T08:57:35;0.60;99.90
5394;DHT22;2720;52.396;10.064;2022-11-20T09:00:04;-0.30;99.90
5394;DHT22;2720;52.396;10.064;2022-11-20T09:02:31;0.50;99.90
5394;DHT22;2720;52.396;10.064;2022-11-20T09:04:59;0.10;99.90
5394;DHT22;2720;52.396;10.064;2022-11-20T09:07:28;-0.40;99.90
5394;DHT22;2720;52.396;10.064;2022-11-20T09:09:55;-0.30;99.90
5394;DHT22;2720;52.396;10.064;2022-11-20T09:12:22;-0.50;99.90
5394;DHT22;2720;52.396;10.064;2022-11-20T09:14:50;0.10;99.90
5394;DHT22;2720;52.396;10.064;2022-11-20T09:17:17;0.30;99.90
5394;DHT22;2720;52.396;10.064;2022-11-20T09:19:46;0.10;99.90
5394;DHT22;2720;52.396;10.064;2022-11-20T09:22:12;0.60;99.90
5394;DHT22;2720;52.396;10.064;2022-11-20T09:24:39;0.40;99.90
5394;DHT22;2720;52.396;10.064;2022-11-20T09:27:08;1.10;99.90
5394;DHT22;2720;52.396;10.064;2022-11-20T09:29:35;0.40;99.90
5394;DHT22;2720;52.396;10.064;2022-11-20T09:32:04;0.20;99.90
5394;DHT22;2720;52.396;10.064;2022-11-20T09:34:31;0.30;99.90
5394;DHT22;2720;52.396;10.064;2022-11-20T09:36:58;0.20;99.90
5394;DHT22;2720;52.396;10.064;2022-11-20T09:39:25;0.30;99.90
5394;DHT22;2720;52.396;10.064;2022-11-20T09:45:00;0.50;99.90
5394;DHT22;2720;52.396;10.064;2022-11-20T09:47:37;0.10;99.90
5394;DHT22;2720;52.396;10.064;2022-11-20T09:50:22;0.50;99.90
5394;DHT22;2720;52.396;10.064;2022-11-20T09:53:04;0.50;99.90
5394;DHT22;2720;52.396;10.064;2022-11-20T09:55:36;1.40;99.90
5394;DHT22;2720;52.396;10.064;2022-11-20T09:58:06;2.10;99.90
5394;DHT22;2720;52.396;10.064;2022-11-20T10:00:34;0.90;99.90
5394;DHT22;2720;52.396;10.064;2022-11-20T10:03:10;1.60;99.90
5394;DHT22;2720;52.396;10.064;2022-11-20T10:05:42;1.10;99.90
5394;DHT22;2720;52.396;10.064;2022-11-20T10:10:45;1.80;99.90
5394;DHT22;2720;52.396;10.064;2022-11-20T10:13:20;1.90;99.90
5394;DHT22;2720;52.396;10.064;2022-11-20T10:15:59;1.90;99.90
5394;DHT22;2720;52.396;10.064;2022-11-20T10:18:40;1.00;99.90
5394;DHT22;2720;52.396;10.064;2022-11-20T10:21:19;1.90;99.90
5394;DHT22;2720;52.396;10.064;2022-11-20T10:24:00;1.20;99.90
5394;DHT22;2720;52.396;10.064;2022-11-20T10:26:36;2.00;99.90
5394;DHT22;2720;52.396;10.064;2022-11-20T10:29:10;1.70;99.90
5394;DHT22;2720;52.396;10.064;2022-11-20T10:31:40;2.20;99.90
5394;DHT22;2720;52.396;10.064;2022-11-20T10:34:18;2.30;99.90
5394;DHT22;2720;52.396;10.064;2022-11-20T10:36:51;2.10;99.90
5394;DHT22;2720;52.396;10.064;2022-11-20T10:39:26;1.80;99.90
5394;DHT22;2720;52.396;10.064;2022-11-20T10:41:56;1.30;99.90
5394;DHT22;2720;52.396;10.064;2022-11-20T10:44:27;2.00;99.90
5394;DHT22;2720;52.396;10.064;2022-11-20T10:47:14;2.10;99.90
5394;DHT22;2720;52.396;10.064;2022-11-20T10:49:44;2.10;99.90
5394;DHT22;2720;52.396;10.064;2022-11-20T10:52:16;2.20;99.90
5394;DHT22;2720;52.396;10.064;2022-11-20T11:00:04;1.60;99.90
5394;DHT22;2720;52.396;10.064;2022-11-20T11:02:35;2.30;99.90
5394;DHT22;2720;52.396;10.064;2022-11-20T11:05:17;2.50;99.90
5394;DHT22;2720;52.396;10.064;2022-11-20T11:12:47;2.90;99.90
5394;DHT22;2720;52.396;10.064;2022-11-20T11:15:24;3.00;99.90
5394;DHT22;2720;52.396;10.064;2022-11-20T11:17:52;3.00;99.90
5394;DHT22;2720;52.396;10.064;2022-11-20T11:20:21;3.10;99.90
5394;DHT22;2720;52.396;10.064;2022-11-20T11:22:50;3.30;99.90
5394;DHT22;2720;52.396;10.064;2022-11-20T11:25:27;3.50;99.90
5394;DHT22;2720;52.396;10.064;2022-11-20T11:27:56;3.20;99.90
5394;DHT22;2720;52.396;10.064;2022-11-20T11:30:25;3.30;99.90
5394;DHT22;2720;52.396;10.064;2022-11-20T11:33:03;3.20;99.90
5394;DHT22;2720;52.396;10.064;2022-11-20T11:35:33;3.50;99.90
5394;DHT22;2720;52.396;10.064;2022-11-20T11:38:04;3.50;99.90
5394;DHT22;2720;52.396;10.064;2022-11-20T11:40:34;3.80;99.90
5394;DHT22;2720;52.396;10.064;2022-11-20T11:43:05;3.90;99.90
5394;DHT22;2720;52.396;10.064;2022-11-20T11:45:54;4.00;99.90
5394;DHT22;2720;52.396;10.064;2022-11-20T11:48:20;4.10;99.90
5394;DHT22;2720;52.396;10.064;2022-11-20T11:50:50;4.20;99.90
5394;DHT22;2720;52.396;10.064;2022-11-20T11:53:18;3.80;99.90
5394;DHT22;2720;52.396;10.064;2022-11-20T11:55:51;4.00;99.90
5394;DHT22;2720;52.396;10.064;2022-11-20T11:58:34;4.20;99.90
5394;DHT22;2720;52.396;10.064;2022-11-20T12:01:07;4.00;99.90
5394;DHT22;2720;52.396;10.064;2022-11-20T12:03:36;4.30;99.90
5394;DHT22;2720;52.396;10.064;2022-11-20T12:06:10;4.30;99.90
5394;DHT22;2720;52.396;10.064;2022-11-20T12:08:44;4.50;99.90
5394;DHT22;2720;52.396;10.064;2022-11-20T12:11:18;4.30;99.90
5394;DHT22;2720;52.396;10.064;2022-11-20T12:13:52;4.40;99.90
5394;DHT22;2720;52.396;10.064;2022-11-20T12:16:21;4.40;99.90
5394;DHT22;2720;52.396;10.064;2022-11-20T12:18:50;4.40;99.90
5394;DHT22;2720;52.396;10.064;2022-11-20T12:21:28;4.30;99.90
5394;DHT22;2720;52.396;10.064;2022-11-20T12:24:20;4.30;99.90
5394;DHT22;2720;52.396;10.064;2022-11-20T12:27:01;3.70;99.90
5394;DHT22;2720;52.396;10.064;2022-11-20T12:32:27;3.40;99.90
5394;DHT22;2720;52.396;10.064;2022-11-20T12:35:02;3.30;99.90
5394;DHT22;2720;52.396;10.064;2022-11-20T12:37:39;2.60;99.90
5394;DHT22;2720;52.396;10.064;2022-11-20T12:40:25;2.70;99.90
5394;DHT22;2720;52.396;10.064;2022-11-20T12:43:01;2.60;99.90
5394;DHT22;2720;52.396;10.064;2022-11-20T12:48:46;2.50;99.90
5394;DHT22;2720;52.396;10.064;2022-11-20T12:51:45;2.20;99.90
5394;DHT22;2720;52.396;10.064;2022-11-20T12:54:41;2.00;99.90
5394;DHT22;2720;52.396;10.064;2022-11-20T12:57:18;1.90;99.90
5394;DHT22;2720;52.396;10.064;2022-11-20T13:00:07;2.10;99.90
5394;DHT22;2720;52.396;10.064;2022-11-20T13:10:20;1.80;99.90
5394;DHT22;2720;52.396;10.064;2022-11-20T13:12:54;1.80;99.90
5394;DHT22;2720;52.396;10.064;2022-11-20T13:15:39;2.10;99.90
5394;DHT22;2720;52.396;10.064;2022-11-20T13:18:09;1.90;99.90
5394;DHT22;2720;52.396;10.064;2022-11-20T13:20:42;1.70;99.90
5394;DHT22;2720;52.396;10.064;2022-11-20T13:23:09;1.70;99.90
5394;DHT22;2720;52.396;10.064;2022-11-20T13:25:39;1.80;99.90
5394;DHT22;2720;52.396;10.064;2022-11-20T13:28:27;1.70;99.90
5394;DHT22;2720;52.396;10.064;2022-11-20T13:30:56;1.60;99.90
5394;DHT22;2720;52.396;10.064;2022-11-20T13:33:27;1.70;99.90
5394;DHT22;2720;52.396;10.064;2022-11-20T13:35:56;1.50;99.90
5394;DHT22;2720;52.396;10.064;2022-11-20T13:38:24;1.60;99.90
5394;DHT22;2720;52.396;10.064;2022-11-20T13:40:55;1.60;99.90
5394;DHT22;2720;52.396;10.064;2022-11-20T13:43:28;1.60;99.90
5394;DHT22;2720;52.396;10.064;2022-11-20T13:46:00;1.70;99.90
5394;DHT22;2720;52.396;10.064;2022-11-20T13:48:31;1.70;99.90
5394;DHT22;2720;52.396;10.064;2022-11-20T13:51:12;1.60;99.90
5394;DHT22;2720;52.396;10.064;2022-11-20T13:53:58;1.60;99.90
5394;DHT22;2720;52.396;10.064;2022-11-20T13:56:37;1.50;99.90
5394;DHT22;2720;52.396;10.064;2022-11-20T13:59:13;1.50;99.90
5394;DHT22;2720;52.396;10.064;2022-11-20T14:01:45;1.60;99.90
5394;DHT22;2720;52.396;10.064;2022-11-20T14:04:17;1.60;99.90
5394;DHT22;2720;52.396;10.064;2022-11-20T14:06:46;1.80;99.90
5394;DHT22;2720;52.396;10.064;2022-11-20T14:09:25;1.80;99.90
5394;DHT22;2720;52.396;10.064;2022-11-20T14:11:53;1.60;99.90
5394;DHT22;2720;52.396;10.064;2022-11-20T14:14:22;1.50;99.90
5394;DHT22;2720;52.396;10.064;2022-11-20T14:16:50;1.40;99.90
5394;DHT22;2720;52.396;10.064;2022-11-20T14:19:27;1.50;99.90
5394;DHT22;2720;52.396;10.064;2022-11-20T14:22:08;1.60;99.90
5394;DHT22;2720;52.396;10.064;2022-11-20T14:24:36;1.60;99.90
5394;DHT22;2720;52.396;10.064;2022-11-20T14:27:04;1.60;99.90
5394;DHT22;2720;52.396;10.064;2022-11-20T14:29:37;1.70;99.90
5394;DHT22;2720;52.396;10.064;2022-11-20T14:32:06;1.70;99.90
5394;DHT22;2720;52.396;10.064;2022-11-20T14:34:38;1.90;99.90
5394;DHT22;2720;52.396;10.064;2022-11-20T14:37:11;1.80;99.90
5394;DHT22;2720;52.396;10.064;2022-11-20T14:39:42;1.80;99.90
5394;DHT22;2720;52.396;10.064;2022-11-20T14:42:17;1.80;99.90
5394;DHT22;2720;52.396;10.064;2022-11-20T14:44:45;1.80;99.90
5394;DHT22;2720;52.396;10.064;2022-11-20T14:47:13;1.70;99.90
5394;DHT22;2720;52.396;10.064;2022-11-20T14:49:42;1.70;99.90
5394;DHT22;2720;52.396;10.064;2022-11-20T14:52:14;1.60;99.90
5394;DHT22;2720;52.396;10.064;2022-11-20T14:54:45;1.50;99.90
5394;DHT22;2720;52.396;10.064;2022-11-20T14:57:23;1.50;99.90
5394;DHT22;2720;52.396;10.064;2022-11-20T14:59:51;1.30;99.90
5394;DHT22;2720;52.396;10.064;2022-11-20T15:02:18;1.30;99.90
5394;DHT22;2720;52.396;10.064;2022-11-20T15:04:46;1.20;99.90
5394;DHT22;2720;52.396;10.064;2022-11-20T15:07:23;1.20;99.90
5394;DHT22;2720;52.396;10.064;2022-11-20T15:10:00;1.10;99.90
5394;DHT22;2720;52.396;10.064;2022-11-20T15:12:29;0.80;99.90
5394;DHT22;2720;52.396;10.064;2022-11-20T15:14:56;0.90;99.90
5394;DHT22;2720;52.396;10.064;2022-11-20T15:17:24;1.00;99.90
5394;DHT22;2720;52.396;10.064;2022-11-20T15:19:51;0.70;99.90
5394;DHT22;2720;52.396;10.064;2022-11-20T15:22:19;0.90;99.90
5394;DHT22;2720;52.396;10.064;2022-11-20T15:24:46;0.60;99.90
5394;DHT22;2720;52.396;10.064;2022-11-20T15:27:13;0.70;99.90
5394;DHT22;2720;52.396;10.064;2022-11-20T15:29:41;0.80;99.90
5394;DHT22;2720;52.396;10.064;2022-11-20T15:32:09;0.80;99.90
5394;DHT22;2720;52.396;10.064;2022-11-20T15:34:36;0.70;99.90
5394;DHT22;2720;52.396;10.064;2022-11-20T15:37:03;0.50;99.90
5394;DHT22;2720;52.396;10.064;2022-11-20T15:39:30;1.10;99.90
5394;DHT22;2720;52.396;10.064;2022-11-20T15:44:24;0.60;99.90
5394;DHT22;2720;52.396;10.064;2022-11-20T15:46:52;0.70;99.90
5394;DHT22;2720;52.396;10.064;2022-11-20T15:49:19;0.40;99.90
5394;DHT22;2720;52.396;10.064;2022-11-20T15:51:50;0.00;99.90
5394;DHT22;2720;52.396;10.064;2022-11-20T15:54:20;0.30;99.90
5394;DHT22;2720;52.396;10.064;2022-11-20T15:56:47;0.30;99.90
5394;DHT22;2720;52.396;10.064;2022-11-20T15:59:15;0.20;99.90
5394;DHT22;2720;52.396;10.064;2022-11-20T16:01:42;0.10;99.90
5394;DHT22;2720;52.396;10.064;2022-11-20T16:04:13;0.00;99.90
5394;DHT22;2720;52.396;10.064;2022-11-20T16:06:41;-0.40;99.90
5394;DHT22;2720;52.396;10.064;2022-11-20T16:09:08;-0.40;99.90
5394;DHT22;2720;52.396;10.064;2022-11-20T16:11:36;-0.50;99.90
5394;DHT22;2720;52.396;10.064;2022-11-20T16:14:04;-0.60;99.90
5394;DHT22;2720;52.396;10.064;2022-11-20T16:16:48;-0.60;99.90
5394;DHT22;2720;52.396;10.064;2022-11-20T16:19:17;-0.60;99.90
5394;DHT22;2720;52.396;10.064;2022-11-20T16:21:45;-0.80;99.90
5394;DHT22;2720;52.396;10.064;2022-11-20T16:24:16;-0.70;99.90
5394;DHT22;2720;52.396;10.064;2022-11-20T16:26:43;-0.80;99.90
5394;DHT22;2720;52.396;10.064;2022-11-20T16:29:10;-0.90;99.90
5394;DHT22;2720;52.396;10.064;2022-11-20T16:31:39;-0.90;99.90
5394;DHT22;2720;52.396;10.064;2022-11-20T16:34:07;-1.10;99.90
5394;DHT22;2720;52.396;10.064;2022-11-20T16:36:36;-1.00;99.90
5394;DHT22;2720;52.396;10.064;2022-11-20T16:39:05;-1.00;99.90
5394;DHT22;2720;52.396;10.064;2022-11-20T16:41:33;-1.30;99.90
5394;DHT22;2720;52.396;10.064;2022-11-20T16:44:06;-0.90;99.90